Time;durP1;ratioP1;P1;durP2;ratioP2;P2;SDS_P1;SDS_P2;PMS_P1;PMS_P2;Temp;Humidity;BMP_temperature;BMP_pressure;BME280_temperature;BME280_humidity;BME280_pressure;Samples;Min_cycle;Max_cycle;Signal;HPM_P1;HPM_P2
2022/10/04 00:01:55;;;;;;;8.25;7.25;;;13.20;99.90;;;;;;4927745;29;20413;-87
2022/10/04 00:04:32;;;;;;;10.18;7.93;;;13.20;99.90;;;;;;4929168;29;20055;-86
2022/10/04 00:07:03;;;;;;;11.40;7.15;;;13.20;99.90;;;;;;4928714;29;20036;-87
2022/10/04 00:09:42;;;;;;;10.43;8.38;;;13.20;99.90;;;;;;4927829;29;20075;-86
2022/10/04 00:12:37;;;;;;;7.97;7.35;;;13.20;99.90;;;;;;4928070;29;20036;-87
2022/10/04 00:15:13;;;;;;;7.28;6.57;;;13.20;99.90;;;;;;4928283;29;20052;-87
2022/10/04 00:17:39;;;;;;;10.23;6.93;;;13.10;99.90;;;;;;4928618;29;20040;-87
2022/10/04 00:20:43;;;;;;;7.10;6.40;;;13.20;99.90;;;;;;4914019;29;20033;-87
2022/10/04 00:51:42;;;;;;;10.68;6.50;;;13.10;99.90;;;;;;4932481;29;20066;-87
2022/10/04 00:54:13;;;;;;;7.57;6.82;;;13.00;99.90;;;;;;4926637;29;20028;-87
2022/10/04 00:56:44;;;;;;;12.68;6.88;;;13.00;99.90;;;;;;4896496;29;20120;-87
2022/10/04 00:59:16;;;;;;;11.52;6.93;;;13.00;99.90;;;;;;4911826;29;20115;-87
2022/10/04 01:01:44;;;;;;;9.52;6.45;;;13.00;99.90;;;;;;4896324;29;20045;-87
2022/10/04 01:04:28;;;;;;;9.23;7.07;;;13.00;99.90;;;;;;4915540;29;20036;-87
2022/10/04 01:07:01;;;;;;;9.93;6.85;;;13.00;99.90;;;;;;4932126;29;20054;-87
2022/10/04 01:09:31;;;;;;;10.68;7.82;;;13.00;99.90;;;;;;4915109;29;20039;-86
2022/10/04 01:12:10;;;;;;;10.93;8.48;;;13.00;99.90;;;;;;4931960;29;20039;-86
2022/10/04 01:14:58;;;;;;;7.00;5.70;;;12.90;99.90;;;;;;4930439;29;20059;-87
2022/10/04 01:17:24;;;;;;;8.38;5.97;;;12.90;99.90;;;;;;4931873;29;20047;-86
2022/10/04 01:19:52;;;;;;;5.75;5.13;;;12.90;99.90;;;;;;4930707;29;20043;-87
2022/10/04 01:22:41;;;;;;;6.22;5.60;;;12.90;99.90;;;;;;4914820;29;20812;-86
2022/10/04 01:25:08;;;;;;;7.50;5.78;;;12.90;99.90;;;;;;4930368;29;20027;-88
2022/10/04 01:27:41;;;;;;;6.40;5.88;;;12.90;99.90;;;;;;4929284;29;20037;-87
2022/10/04 01:30:14;;;;;;;8.10;6.97;;;12.90;99.90;;;;;;4930297;29;20032;-87
2022/10/04 01:32:40;;;;;;;10.93;5.38;;;12.80;99.90;;;;;;4931521;29;20024;-87
2022/10/04 01:35:09;;;;;;;8.40;5.10;;;12.90;99.90;;;;;;4912314;29;20031;-87
2022/10/04 01:37:36;;;;;;;5.57;5.18;;;12.90;99.90;;;;;;4911372;29;20033;-87
2022/10/04 01:40:02;;;;;;;6.32;5.78;;;12.90;99.90;;;;;;4912652;29;20064;-87
2022/10/04 01:42:53;;;;;;;5.68;4.57;;;12.80;99.90;;;;;;4927051;29;20070;-87
2022/10/04 01:45:34;;;;;;;6.65;5.93;;;12.80;99.90;;;;;;4918517;29;20076;-87
2022/10/04 01:48:04;;;;;;;5.20;4.70;;;12.80;99.90;;;;;;4945510;29;20032;-87
2022/10/04 01:50:46;;;;;;;8.48;5.35;;;12.80;99.90;;;;;;4929932;29;20044;-87
2022/10/04 01:53:22;;;;;;;4.53;4.10;;;12.80;99.90;;;;;;4914026;29;20036;-86
2022/10/04 01:55:53;;;;;;;4.88;4.22;;;12.80;99.90;;;;;;4930346;29;20036;-87
2022/10/04 01:58:27;;;;;;;7.22;5.20;;;12.80;99.90;;;;;;4914155;29;20047;-87
2022/10/04 02:01:10;;;;;;;4.53;4.10;;;12.80;99.90;;;;;;4914226;29;20036;-88
2022/10/04 02:03:42;;;;;;;6.95;5.07;;;12.80;99.90;;;;;;4913779;29;20079;-87
2022/10/04 02:06:11;;;;;;;6.22;4.20;;;12.70;99.90;;;;;;4927878;29;20029;-87
2022/10/04 02:08:43;;;;;;;6.57;3.92;;;12.80;99.90;;;;;;4910560;29;20017;-87
2022/10/04 02:11:15;;;;;;;10.27;4.25;;;12.70;99.90;;;;;;4912038;29;20040;-88
2022/10/04 02:13:45;;;;;;;6.32;3.88;;;12.70;99.90;;;;;;4880734;29;20073;-87
2022/10/04 02:16:11;;;;;;;8.00;4.45;;;12.70;99.90;;;;;;4928186;29;20120;-87
2022/10/04 02:18:40;;;;;;;6.10;3.92;;;12.70;99.90;;;;;;4913660;29;20036;-86
2022/10/04 02:21:07;;;;;;;4.47;4.07;;;12.70;99.90;;;;;;4929602;29;20055;-87
2022/10/04 02:23:35;;;;;;;4.30;3.85;;;12.70;99.90;;;;;;4930676;29;20032;-87
2022/10/04 02:26:06;;;;;;;4.00;3.67;;;12.70;99.90;;;;;;4912897;29;20036;-87
2022/10/04 02:28:32;;;;;;;13.80;5.10;;;12.70;99.90;;;;;;4879179;29;20052;-87
2022/10/04 02:33:47;;;;;;;7.78;4.00;;;12.70;99.90;;;;;;4911721;29;20048;-87
2022/10/04 02:36:14;;;;;;;10.27;4.30;;;12.70;99.90;;;;;;4911591;29;20169;-87
2022/10/04 02:38:48;;;;;;;5.30;4.35;;;12.70;99.90;;;;;;4894639;29;20055;-87
2022/10/04 02:41:24;;;;;;;7.40;4.63;;;12.70;99.90;;;;;;4910422;29;20422;-87
2022/10/04 02:43:55;;;;;;;4.45;3.28;;;12.70;99.90;;;;;;4910085;29;20039;-87
2022/10/04 02:46:32;;;;;;;5.20;4.03;;;12.70;99.90;;;;;;4911245;29;20097;-87
2022/10/04 02:49:09;;;;;;;4.97;4.45;;;12.60;99.90;;;;;;4910165;29;20505;-87
2022/10/04 02:51:35;;;;;;;6.82;5.97;;;12.60;99.90;;;;;;4894504;29;20096;-87
2022/10/04 02:54:03;;;;;;;7.28;4.40;;;12.60;99.90;;;;;;4894508;29;20036;-87
2022/10/04 02:56:29;;;;;;;6.22;3.90;;;12.60;99.90;;;;;;4944456;29;20036;-86
2022/10/04 02:59:00;;;;;;;6.10;4.18;;;12.60;99.90;;;;;;4928822;29;20043;-86
2022/10/04 03:01:36;;;;;;;4.25;3.40;;;12.60;99.90;;;;;;4928800;29;20082;-87
2022/10/04 03:04:03;;;;;;;5.05;3.80;;;12.60;99.90;;;;;;4928490;29;20048;-87
2022/10/04 03:06:31;;;;;;;7.65;5.13;;;12.60;99.90;;;;;;4897206;29;20032;-87
2022/10/04 03:09:04;;;;;;;12.48;5.35;;;12.50;99.90;;;;;;4912758;29;20115;-88
2022/10/04 03:11:36;;;;;;;5.43;3.65;;;12.60;99.90;;;;;;4944645;29;20032;-87
2022/10/04 03:14:07;;;;;;;8.35;4.78;;;12.60;99.90;;;;;;4912856;29;20060;-87
2022/10/04 03:16:41;;;;;;;9.43;4.80;;;12.60;99.90;;;;;;4913744;29;20028;-88
2022/10/04 03:19:07;;;;;;;17.05;5.85;;;12.50;99.90;;;;;;4928480;29;20039;-87
2022/10/04 03:21:35;;;;;;;6.40;4.20;;;12.60;99.90;;;;;;4928441;29;20032;-87
2022/10/04 03:24:05;;;;;;;7.85;4.38;;;12.60;99.90;;;;;;4912590;29;20950;-87
2022/10/04 03:26:46;;;;;;;9.50;4.43;;;12.50;99.90;;;;;;4929207;29;20032;-87
2022/10/04 03:29:14;;;;;;;4.57;4.05;;;12.50;99.90;;;;;;4912611;29;20039;-87
2022/10/04 03:31:48;;;;;;;4.82;3.28;;;12.50;99.90;;;;;;4928408;29;20466;-86
2022/10/04 03:34:16;;;;;;;7.28;3.60;;;12.50;99.90;;;;;;4928633;29;20043;-87
2022/10/04 03:36:43;;;;;;;10.68;3.20;;;12.50;99.90;;;;;;4909342;29;20099;-87
2022/10/04 03:39:11;;;;;;;5.10;3.88;;;12.50;99.90;;;;;;4925081;29;20028;-87
2022/10/04 03:41:41;;;;;;;4.60;3.92;;;12.50;99.90;;;;;;4910703;29;20044;-87
2022/10/04 03:44:14;;;;;;;5.95;3.42;;;12.60;99.90;;;;;;4909119;29;20041;-86
2022/10/04 03:46:41;;;;;;;5.20;4.32;;;12.40;99.90;;;;;;4909477;29;20061;-87
2022/10/04 03:49:08;;;;;;;5.22;3.65;;;12.50;99.90;;;;;;4893635;29;20024;-87
2022/10/04 03:51:34;;;;;;;3.47;3.17;;;12.40;99.90;;;;;;4914920;29;20048;-87
2022/10/04 03:54:01;;;;;;;6.25;3.65;;;12.40;99.90;;;;;;4899807;29;20039;-87
2022/10/04 03:56:32;;;;;;;6.30;3.65;;;12.40;99.90;;;;;;4934140;29;20040;-87
2022/10/04 03:59:01;;;;;;;9.73;4.05;;;12.40;99.90;;;;;;4903453;29;20063;-87
2022/10/04 04:01:48;;;;;;;5.47;3.83;;;12.40;99.90;;;;;;4918623;29;20036;-87
2022/10/04 04:04:30;;;;;;;6.15;4.38;;;12.40;99.90;;;;;;4933670;29;20093;-87
2022/10/04 04:07:06;;;;;;;4.80;3.60;;;12.40;99.90;;;;;;4915364;29;20032;-86
2022/10/04 04:09:41;;;;;;;5.53;3.58;;;12.40;99.90;;;;;;4915304;29;20032;-87
2022/10/04 04:12:17;;;;;;;7.35;3.70;;;12.30;99.90;;;;;;4931071;29;20047;-87
2022/10/04 04:14:45;;;;;;;4.80;3.65;;;12.30;99.90;;;;;;4919329;29;20064;-87
2022/10/04 04:17:26;;;;;;;11.73;3.72;;;12.30;99.90;;;;;;4918502;29;20031;-86
2022/10/04 04:19:56;;;;;;;3.17;2.85;;;12.30;99.90;;;;;;4918496;29;20063;-86
2022/10/04 04:22:22;;;;;;;6.30;3.10;;;12.30;99.90;;;;;;4934170;29;20047;-87
2022/10/04 04:24:49;;;;;;;3.53;3.03;;;12.30;99.90;;;;;;4918093;29;20020;-86
2022/10/04 04:27:18;;;;;;;3.53;3.22;;;12.30;99.90;;;;;;4918263;29;20044;-87
2022/10/04 04:29:53;;;;;;;4.47;3.92;;;12.30;99.90;;;;;;4934181;29;20040;-87
2022/10/04 04:32:24;;;;;;;12.45;3.92;;;12.30;99.90;;;;;;4934043;29;20071;-88
2022/10/04 04:34:57;;;;;;;10.73;4.75;;;12.30;99.90;;;;;;4933258;29;20047;-87
2022/10/04 04:37:23;;;;;;;5.53;3.30;;;12.20;99.90;;;;;;4931766;29;20028;-86
2022/10/04 04:39:53;;;;;;;9.32;3.63;;;12.20;99.90;;;;;;4913689;29;20056;-86
2022/10/04 04:42:39;;;;;;;6.78;3.20;;;12.20;99.90;;;;;;4922087;29;20040;-87
2022/10/04 04:45:16;;;;;;;8.00;3.05;;;12.20;99.90;;;;;;4906187;29;20485;-86
2022/10/04 04:47:50;;;;;;;5.05;3.33;;;12.20;99.90;;;;;;4927183;29;20036;-87
2022/10/04 04:50:26;;;;;;;11.25;4.53;;;12.20;99.90;;;;;;4937700;29;20082;-86
2022/10/04 04:52:58;;;;;;;9.10;3.92;;;12.20;99.90;;;;;;4945478;29;20032;-87
2022/10/04 04:55:31;;;;;;;4.85;3.50;;;12.20;99.90;;;;;;4929323;29;20031;-86
2022/10/04 04:58:00;;;;;;;5.65;4.15;;;12.10;99.90;;;;;;4912945;29;20067;-88
2022/10/04 05:00:32;;;;;;;7.15;3.55;;;12.10;99.90;;;;;;4924280;29;20072;-87
2022/10/04 05:03:01;;;;;;;5.03;3.15;;;12.20;99.90;;;;;;4917659;29;20068;-86
2022/10/04 05:05:29;;;;;;;5.57;3.63;;;12.10;99.90;;;;;;4914714;29;20044;-86
2022/10/04 05:08:23;;;;;;;6.15;3.80;;;12.10;99.90;;;;;;4928033;29;20036;-86
2022/10/04 05:10:56;;;;;;;4.53;4.00;;;12.10;99.90;;;;;;4911919;29;20112;-87
2022/10/04 05:13:29;;;;;;;6.25;3.85;;;12.30;99.90;;;;;;4914496;29;20060;-86
2022/10/04 05:15:58;;;;;;;10.82;4.60;;;12.10;99.90;;;;;;4914658;29;20032;-86
2022/10/04 05:18:30;;;;;;;4.07;3.00;;;12.00;99.90;;;;;;4914612;29;20040;-86
2022/10/04 05:21:13;;;;;;;12.68;4.10;;;12.00;99.90;;;;;;4914398;29;20028;-86
2022/10/04 05:23:39;;;;;;;7.68;3.90;;;12.00;99.90;;;;;;4943464;29;20028;-86
2022/10/04 05:26:10;;;;;;;6.90;3.60;;;12.00;99.90;;;;;;4922074;29;20032;-86
2022/10/04 05:28:36;;;;;;;6.82;4.00;;;11.90;99.90;;;;;;4941634;29;20029;-86
2022/10/04 05:31:17;;;;;;;3.75;3.10;;;11.90;99.90;;;;;;4909332;29;20071;-86
2022/10/04 05:33:50;;;;;;;5.97;4.70;;;11.90;99.90;;;;;;4926886;29;20061;-86
2022/10/04 05:36:31;;;;;;;5.47;3.25;;;11.90;99.90;;;;;;4940428;29;20071;-87
2022/10/04 05:39:19;;;;;;;5.20;4.70;;;11.90;99.90;;;;;;4919589;29;20040;-86
2022/10/04 05:41:55;;;;;;;5.60;3.20;;;11.90;99.90;;;;;;4918917;29;20040;-86
2022/10/04 05:44:36;;;;;;;3.17;2.90;;;11.90;99.90;;;;;;4918378;29;20026;-86
2022/10/04 05:47:06;;;;;;;8.07;3.63;;;11.80;99.90;;;;;;4911099;29;20413;-86
2022/10/04 05:49:33;;;;;;;;;;;11.80;99.90;;;;;;4926949;29;20024;-87
2022/10/04 05:52:13;;;;;;;4.57;3.25;;;11.80;99.90;;;;;;4922653;29;19917;-85
2022/10/04 05:54:38;;;;;;;4.73;4.00;;;11.80;99.90;;;;;;4918543;29;20031;-86
2022/10/04 05:57:28;;;;;;;4.90;3.97;;;11.70;99.90;;;;;;4926059;29;20294;-85
2022/10/04 05:59:54;;;;;;;8.00;3.93;;;11.70;99.90;;;;;;4919292;29;20063;-86
2022/10/04 06:02:35;;;;;;;9.18;5.50;;;11.70;99.90;;;;;;4927655;29;20392;-86
2022/10/04 06:05:17;;;;;;;10.10;6.40;;;11.70;99.90;;;;;;4906985;29;20041;-86
2022/10/04 06:07:56;;;;;;;8.23;5.55;;;11.70;99.90;;;;;;4911340;29;20039;-86
2022/10/04 06:10:40;;;;;;;13.43;6.72;;;11.60;99.90;;;;;;4920207;29;20040;-85
2022/10/04 06:13:50;;;;;;;7.10;5.88;;;11.60;99.90;;;;;;4923750;29;20104;-86
2022/10/04 06:16:36;;;;;;;10.77;6.93;;;11.60;99.90;;;;;;4874977;29;20068;-86
2022/10/04 06:19:25;;;;;;;14.80;6.53;;;11.60;99.90;;;;;;4874960;29;20446;-87
2022/10/04 06:22:17;;;;;;;9.33;6.90;;;11.60;99.90;;;;;;4931479;29;20056;-86
2022/10/04 06:24:49;;;;;;;6.82;6.15;;;11.60;99.90;;;;;;4911804;29;20285;-86
2022/10/04 06:27:40;;;;;;;6.35;5.03;;;11.60;99.90;;;;;;4945127;29;20446;-85
2022/10/04 06:30:13;;;;;;;9.20;5.68;;;11.60;99.90;;;;;;4917685;29;20040;-85
2022/10/04 06:32:58;;;;;;;6.85;5.30;;;11.60;99.90;;;;;;4912542;29;20039;-85
2022/10/04 06:35:54;;;;;;;8.60;5.65;;;11.60;99.90;;;;;;4920195;29;20063;-85
2022/10/04 06:38:53;;;;;;;6.95;4.85;;;11.60;99.90;;;;;;4923136;29;20033;-85
2022/10/04 06:41:34;;;;;;;14.93;4.72;;;11.60;99.90;;;;;;4929636;29;20072;-85
2022/10/04 06:44:35;;;;;;;7.38;5.45;;;11.60;99.90;;;;;;4936444;29;20032;-85
2022/10/04 06:47:19;;;;;;;5.75;4.22;;;11.60;99.90;;;;;;4903602;29;20041;-86
2022/10/04 06:49:59;;;;;;;4.97;4.55;;;11.60;99.90;;;;;;4910384;29;20032;-85
2022/10/04 06:52:59;;;;;;;7.23;5.00;;;11.60;99.90;;;;;;4896664;29;20096;-86
2022/10/04 06:55:48;;;;;;;;;;;11.60;99.90;;;;;;4907603;29;20092;-86
2022/10/04 06:58:28;;;;;;;7.72;4.60;;;11.70;99.90;;;;;;4926454;29;20009;-85
2022/10/04 07:01:28;;;;;;;4.63;4.25;;;11.70;99.90;;;;;;4910270;29;20088;-86
2022/10/04 07:04:19;;;;;;;10.45;5.55;;;11.70;99.90;;;;;;4928612;29;20079;-85
2022/10/04 07:07:25;;;;;;;6.25;5.65;;;11.70;99.90;;;;;;4928781;29;20032;-85
2022/10/04 07:09:58;;;;;;;6.22;4.22;;;11.70;99.90;;;;;;4916523;29;20032;-85
2022/10/04 07:12:26;;;;;;;6.68;4.72;;;11.70;99.90;;;;;;4912554;29;20060;-85
2022/10/04 07:14:56;;;;;;;7.90;5.15;;;11.70;99.90;;;;;;4929751;29;20043;-86
2022/10/04 07:17:32;;;;;;;6.80;5.65;;;11.70;99.90;;;;;;4928547;29;20028;-85
2022/10/04 07:20:00;;;;;;;8.70;6.75;;;11.70;99.90;;;;;;4916907;29;20036;-86
2022/10/04 07:22:40;;;;;;;11.23;7.40;;;11.70;99.90;;;;;;4944259;29;20100;-86
2022/10/04 07:25:29;;;;;;;8.82;5.30;;;11.80;99.90;;;;;;4927414;29;20385;-86
2022/10/04 07:31:08;;;;;;;8.32;5.13;;;11.70;99.90;;;;;;4929852;29;20028;-85
2022/10/04 07:33:40;;;;;;;;;;;11.70;99.90;;;;;;4928717;29;20057;-85
2022/10/04 07:36:14;;;;;;;5.25;4.55;;;11.70;99.90;;;;;;4928379;29;20019;-86
2022/10/04 07:39:00;;;;;;;7.53;4.80;;;11.80;99.90;;;;;;4927516;29;20028;-86
2022/10/04 07:41:46;;;;;;;5.28;4.35;;;11.80;99.90;;;;;;4928228;29;20142;-86
2022/10/04 07:44:38;;;;;;;7.00;6.00;;;11.80;99.90;;;;;;4912365;29;20051;-86
2022/10/04 07:47:20;;;;;;;7.75;6.00;;;11.80;99.90;;;;;;4928222;29;20036;-85
2022/10/04 07:49:49;;;;;;;8.77;5.25;;;11.80;99.90;;;;;;4927205;29;20038;-86
2022/10/04 07:52:30;;;;;;;4.78;4.20;;;11.90;99.90;;;;;;4926900;29;20060;-85
2022/10/04 07:55:07;;;;;;;5.82;4.57;;;11.90;99.90;;;;;;4920392;29;20028;-85
2022/10/04 07:58:07;;;;;;;7.15;5.82;;;11.90;99.90;;;;;;4924632;29;20060;-86
2022/10/04 08:00:43;;;;;;;5.22;4.82;;;11.90;99.90;;;;;;4915687;29;20065;-86
2022/10/04 08:03:42;;;;;;;7.32;4.25;;;12.10;99.90;;;;;;4916325;29;20125;-86
2022/10/04 08:06:19;;;;;;;6.38;5.80;;;12.00;99.90;;;;;;4913489;29;20556;-86
2022/10/04 08:09:01;;;;;;;10.60;6.28;;;12.00;99.90;;;;;;4924961;29;20131;-85
2022/10/04 08:11:42;;;;;;;11.48;4.78;;;12.10;99.90;;;;;;4927209;29;20075;-86
2022/10/04 08:14:39;;;;;;;9.60;5.93;;;12.10;99.90;;;;;;4927231;29;20024;-85
2022/10/04 08:17:13;;;;;;;7.75;4.20;;;12.10;99.90;;;;;;4927401;29;20037;-84
2022/10/04 08:19:53;;;;;;;11.80;5.40;;;12.20;99.90;;;;;;4926623;29;20505;-85
2022/10/04 08:22:32;;;;;;;;;;;12.20;99.90;;;;;;4924655;29;20067;-85
2022/10/04 08:25:23;;;;;;;8.57;5.20;;;12.20;99.90;;;;;;4942049;29;19922;-85
2022/10/04 08:30:54;;;;;;;7.47;5.28;;;12.30;99.90;;;;;;4928183;29;20036;-85
2022/10/04 08:33:43;;;;;;;5.55;5.05;;;12.40;99.90;;;;;;4917939;29;20039;-86
2022/10/04 08:36:30;;;;;;;7.63;4.32;;;12.40;99.90;;;;;;4911936;29;20064;-85
2022/10/04 08:38:58;;;;;;;5.88;4.72;;;12.50;99.90;;;;;;4931805;29;20117;-85
2022/10/04 08:42:00;;;;;;;6.13;4.65;;;12.50;99.90;;;;;;4930549;29;20039;-86
2022/10/04 08:44:51;;;;;;;5.68;4.28;;;12.60;99.90;;;;;;4928452;29;20028;-85
2022/10/04 08:47:32;;;;;;;6.03;3.78;;;12.60;99.90;;;;;;4921124;29;20024;-85
2022/10/04 08:50:29;;;;;;;4.80;4.18;;;12.70;99.90;;;;;;4924290;29;20095;-86
2022/10/04 08:52:58;;;;;;;4.72;4.20;;;12.80;99.90;;;;;;4927728;29;20052;-86
2022/10/04 08:55:42;;;;;;;5.88;4.57;;;12.90;99.90;;;;;;4931114;29;20397;-86
2022/10/04 08:58:23;;;;;;;6.20;4.32;;;12.90;99.90;;;;;;4931088;29;20417;-86
2022/10/04 09:00:55;;;;;;;7.97;3.60;;;13.00;99.90;;;;;;4942593;29;20040;-85
2022/10/04 09:03:55;;;;;;;7.90;4.22;;;13.10;99.90;;;;;;4929836;29;20040;-86
2022/10/04 09:06:36;;;;;;;11.77;4.05;;;13.20;99.90;;;;;;4915590;29;20029;-87
2022/10/04 09:09:28;;;;;;;9.05;5.40;;;13.30;99.90;;;;;;4915644;29;20118;-87
2022/10/04 09:12:15;;;;;;;3.90;3.60;;;13.30;99.90;;;;;;4946524;29;20036;-86
2022/10/04 09:15:12;;;;;;;4.88;4.13;;;13.40;99.90;;;;;;4930876;29;20044;-87
2022/10/04 09:17:55;;;;;;;5.75;4.68;;;13.50;99.90;;;;;;4930813;29;20024;-87
2022/10/04 09:20:23;;;;;;;8.75;4.78;;;13.60;99.90;;;;;;4935829;29;20042;-85
2022/10/04 09:23:19;;;;;;;5.07;4.15;;;13.60;99.90;;;;;;4913922;29;20035;-87
2022/10/04 09:25:48;;;;;;;6.38;4.53;;;13.70;99.90;;;;;;4914794;29;20465;-87
2022/10/04 09:28:23;;;;;;;12.33;4.83;;;13.70;99.90;;;;;;4924967;29;20116;-86
2022/10/04 09:31:10;;;;;;;9.88;4.20;;;13.80;99.90;;;;;;4928711;29;20043;-86
2022/10/04 09:33:47;;;;;;;6.47;3.83;;;13.80;99.90;;;;;;4930601;29;20042;-86
2022/10/04 09:36:42;;;;;;;8.10;4.40;;;13.90;99.90;;;;;;4922394;29;20025;-87
2022/10/04 09:39:20;;;;;;;12.02;6.25;;;13.90;99.90;;;;;;4900895;29;20036;-87
2022/10/04 09:42:27;;;;;;;4.45;4.05;;;13.90;99.90;;;;;;4929017;29;20115;-87
2022/10/04 09:45:26;;;;;;;3.10;2.88;;;14.00;99.90;;;;;;4878047;29;20040;-87
2022/10/04 09:48:16;;;;;;;5.18;3.30;;;14.00;99.90;;;;;;4909385;29;20526;-87
2022/10/04 09:51:02;;;;;;;;;;;14.00;99.90;;;;;;4928401;29;20099;-86
2022/10/04 09:53:43;;;;;;;6.05;4.53;;;14.10;99.90;;;;;;4927955;29;19911;-86
2022/10/04 09:56:30;;;;;;;4.22;3.53;;;14.10;99.90;;;;;;4912339;29;20036;-86
2022/10/04 09:59:17;;;;;;;3.83;3.47;;;14.10;99.90;;;;;;4929825;29;20032;-87
2022/10/04 10:02:25;;;;;;;4.13;3.70;;;14.10;99.90;;;;;;4929216;29;20470;-87
2022/10/04 10:05:15;;;;;;;3.70;3.28;;;14.10;99.90;;;;;;4929265;29;20039;-86
2022/10/04 10:08:08;;;;;;;6.20;4.18;;;14.20;99.90;;;;;;4930850;29;20230;-87
2022/10/04 10:14:06;;;;;;;4.07;2.72;;;14.40;99.90;;;;;;4929711;29;20048;-86
2022/10/04 10:16:53;;;;;;;8.23;3.83;;;14.40;99.90;;;;;;4922160;29;20039;-86
2022/10/04 10:19:43;;;;;;;6.55;4.28;;;14.50;99.90;;;;;;4915178;29;20061;-86
2022/10/04 10:22:19;;;;;;;;;;;14.40;99.90;;;;;;4912433;29;20047;-87
2022/10/04 10:25:06;;;;;;;6.10;3.80;;;14.40;99.90;;;;;;4923956;29;19911;-87
2022/10/04 10:28:03;;;;;;;13.15;4.03;;;14.40;99.90;;;;;;4910474;29;20124;-86
2022/10/04 10:30:55;;;;;;;4.60;3.03;;;14.40;99.90;;;;;;4903717;29;20036;-87
2022/10/04 10:33:30;;;;;;;4.15;3.67;;;14.40;99.90;;;;;;4919472;29;20059;-87
2022/10/04 10:36:02;;;;;;;6.15;3.47;;;14.40;99.90;;;;;;4922613;29;20056;-87
2022/10/04 10:38:30;;;;;;;9.98;3.53;;;14.40;99.90;;;;;;4910898;29;20079;-86
2022/10/04 10:41:34;;;;;;;3.20;2.53;;;14.50;99.90;;;;;;4899902;29;20030;-87
2022/10/04 10:44:06;;;;;;;4.43;3.63;;;14.50;99.90;;;;;;4918016;29;20513;-87
2022/10/04 10:46:38;;;;;;;4.75;3.40;;;14.40;99.90;;;;;;4919169;29;20102;-86
2022/10/04 10:49:43;;;;;;;6.57;2.92;;;14.50;99.90;;;;;;4927854;29;20119;-86
2022/10/04 10:52:21;;;;;;;5.15;3.70;;;14.60;99.90;;;;;;4913106;29;20032;-87
2022/10/04 10:55:06;;;;;;;5.05;3.17;;;14.60;99.90;;;;;;4925375;29;20039;-87
2022/10/04 10:58:10;;;;;;;5.03;4.38;;;14.70;99.90;;;;;;4923211;29;20076;-88
2022/10/04 11:00:57;;;;;;;5.35;2.80;;;14.70;99.90;;;;;;4907823;29;20040;-87
2022/10/04 11:03:38;;;;;;;7.32;3.63;;;14.70;99.90;;;;;;4909683;29;20049;-88
2022/10/04 11:06:42;;;;;;;3.38;3.08;;;14.70;99.90;;;;;;4905719;29;20024;-88
2022/10/04 11:09:26;;;;;;;5.88;4.28;;;14.80;99.90;;;;;;4928620;29;20430;-88
2022/10/04 11:12:17;;;;;;;4.47;3.33;;;14.80;99.90;;;;;;4908283;29;20043;-87
2022/10/04 11:14:48;;;;;;;27.50;5.03;;;14.80;99.90;;;;;;4943428;29;20039;-88
2022/10/04 11:17:37;;;;;;;6.47;3.30;;;14.90;99.90;;;;;;4916579;29;20047;-87
2022/10/04 11:20:37;;;;;;;5.50;3.08;;;14.90;99.90;;;;;;4930522;29;20474;-87
2022/10/04 11:23:42;;;;;;;3.90;2.80;;;14.90;99.90;;;;;;4943517;29;20036;-87
2022/10/04 11:26:39;;;;;;;5.93;4.60;;;14.90;99.90;;;;;;4922632;29;20095;-87
2022/10/04 11:29:19;;;;;;;7.40;4.63;;;14.90;99.90;;;;;;4903170;29;20032;-88
2022/10/04 11:32:00;;;;;;;4.05;3.15;;;15.00;99.90;;;;;;4926515;29;20084;-88
2022/10/04 11:34:56;;;;;;;4.07;3.42;;;15.00;99.90;;;;;;4906605;29;20043;-87
2022/10/04 11:37:46;;;;;;;2.95;2.33;;;15.00;99.90;;;;;;4928636;29;20088;-88
2022/10/04 11:40:30;;;;;;;7.80;3.42;;;15.10;99.90;;;;;;4921085;29;20051;-88
2022/10/04 11:43:34;;;;;;;3.17;2.72;;;15.10;99.90;;;;;;4927852;29;20028;-88
2022/10/04 11:46:39;;;;;;;4.03;3.08;;;15.10;99.90;;;;;;4912135;29;20024;-88
2022/10/04 11:49:26;;;;;;;3.90;3.50;;;15.20;99.90;;;;;;4911902;29;20071;-87
2022/10/04 11:52:04;;;;;;;5.35;2.83;;;15.20;99.90;;;;;;4941481;29;20036;-86
2022/10/04 11:54:51;;;;;;;6.15;3.92;;;15.30;99.90;;;;;;4922434;29;20092;-88
2022/10/04 11:57:32;;;;;;;8.40;2.58;;;15.30;99.90;;;;;;4916858;29;20044;-88
2022/10/04 12:00:14;;;;;;;4.47;3.60;;;15.30;99.90;;;;;;4926549;29;20042;-89
2022/10/04 12:02:43;;;;;;;9.38;2.95;;;15.40;99.90;;;;;;4929240;29;20039;-88
2022/10/04 12:05:31;;;;;;;4.40;2.35;;;15.40;99.90;;;;;;4910222;29;20040;-87
2022/10/04 12:08:16;;;;;;;2.72;2.53;;;15.50;99.90;;;;;;4920223;29;20039;-88
2022/10/04 12:10:51;;;;;;;3.35;2.70;;;15.60;99.90;;;;;;4924817;29;20035;-89
2022/10/04 12:13:33;;;;;;;5.78;3.47;;;15.60;99.90;;;;;;4913303;29;20139;-88
2022/10/04 12:16:11;;;;;;;5.78;4.07;;;15.60;99.90;;;;;;4915820;29;20040;-88
2022/10/04 12:18:54;;;;;;;7.25;4.18;;;15.60;99.90;;;;;;4931399;29;20067;-89
2022/10/04 12:21:39;;;;;;;5.47;3.53;;;15.70;99.90;;;;;;4943132;29;20037;-89
2022/10/04 12:24:14;;;;;;;7.32;4.57;;;15.70;99.90;;;;;;4917390;29;20036;-89
2022/10/04 12:26:40;;;;;;;3.17;2.80;;;15.80;99.90;;;;;;4931770;29;20030;-88
2022/10/04 12:30:01;;;;;;;3.22;2.92;;;15.90;99.90;;;;;;4916155;29;20020;-88
2022/10/04 12:33:01;;;;;;;9.35;2.90;;;15.80;99.90;;;;;;4878316;29;20037;-87
2022/10/04 12:36:00;;;;;;;2.78;2.53;;;15.90;99.90;;;;;;4908543;29;20036;-88
2022/10/04 12:38:37;;;;;;;3.33;2.92;;;15.90;99.90;;;;;;4919498;29;20088;-88
2022/10/04 12:41:30;;;;;;;2.70;2.50;;;15.90;99.90;;;;;;4926388;29;20119;-88
2022/10/04 12:43:56;;;;;;;3.70;2.75;;;16.00;99.90;;;;;;4927345;29;20039;-88
2022/10/04 12:46:43;;;;;;;6.03;2.75;;;16.00;99.90;;;;;;4931206;29;20040;-88
2022/10/04 12:49:19;;;;;;;4.68;2.65;;;16.00;99.90;;;;;;4931427;29;20067;-89
2022/10/04 12:51:54;;;;;;;3.60;3.03;;;16.00;99.90;;;;;;4925598;29;20048;-88
2022/10/04 12:54:50;;;;;;;13.00;3.60;;;16.00;99.90;;;;;;4910550;29;20032;-88
2022/10/04 12:57:58;;;;;;;2.75;2.55;;;16.00;99.90;;;;;;4926357;29;20024;-89
2022/10/04 13:00:27;;;;;;;3.67;2.53;;;16.00;99.90;;;;;;4929535;29;20032;-87
2022/10/04 13:03:11;;;;;;;2.65;2.22;;;16.00;99.90;;;;;;4930787;29;20039;-88
2022/10/04 13:05:55;;;;;;;4.07;3.58;;;16.00;99.90;;;;;;4915491;29;20040;-87
2022/10/04 13:08:35;;;;;;;4.63;2.70;;;16.00;99.90;;;;;;4931311;29;20032;-87
2022/10/04 13:11:50;;;;;;;2.28;2.17;;;16.00;99.90;;;;;;4913230;29;20092;-87
2022/10/04 13:14:26;;;;;;;9.48;2.63;;;16.00;99.90;;;;;;4895062;29;20103;-88
2022/10/04 13:17:06;;;;;;;6.05;3.70;;;16.00;99.90;;;;;;4914090;29;20040;-88
2022/10/04 13:19:56;;;;;;;3.25;2.92;;;16.10;99.90;;;;;;4915081;29;20057;-88
2022/10/04 13:22:31;;;;;;;3.97;2.97;;;16.00;99.90;;;;;;4914260;29;20046;-89
2022/10/04 13:25:36;;;;;;;5.07;3.42;;;16.10;99.90;;;;;;4929491;29;20104;-88
2022/10/04 13:28:22;;;;;;;4.57;2.67;;;16.10;99.90;;;;;;4927865;29;20075;-89
2022/10/04 13:31:00;;;;;;;3.42;3.13;;;16.20;99.90;;;;;;4918835;29;20025;-88
2022/10/04 13:33:47;;;;;;;4.93;2.30;;;16.30;99.90;;;;;;4919299;29;20024;-88
2022/10/04 13:36:22;;;;;;;6.50;3.33;;;16.30;99.90;;;;;;4933009;29;20040;-89
2022/10/04 13:39:08;;;;;;;5.88;2.92;;;16.30;99.90;;;;;;4906112;29;20148;-89
2022/10/04 13:41:52;;;;;;;6.13;2.95;;;16.30;99.90;;;;;;4914321;29;20135;-88
2022/10/04 13:44:54;;;;;;;5.47;2.22;;;16.40;99.90;;;;;;4930352;29;20067;-88
2022/10/04 13:47:56;;;;;;;3.78;2.45;;;16.40;99.90;;;;;;4910035;29;20032;-87
2022/10/04 13:50:22;;;;;;;2.72;2.28;;;16.40;99.90;;;;;;4911994;29;20479;-88
2022/10/04 13:56:36;;;;;;;3.92;2.50;;;16.50;99.90;;;;;;4908666;29;20072;-89
2022/10/04 13:59:26;;;;;;;8.52;3.05;;;16.50;99.90;;;;;;4912323;29;20087;-88
2022/10/04 14:02:11;;;;;;;3.80;3.40;;;16.50;99.90;;;;;;4917276;29;20478;-88
2022/10/04 14:04:56;;;;;;;2.38;2.13;;;16.50;99.90;;;;;;4925392;29;20051;-87
2022/10/04 14:07:43;;;;;;;4.22;2.33;;;16.50;99.90;;;;;;4933590;29;20036;-89
2022/10/04 14:10:45;;;;;;;2.78;2.38;;;16.60;99.90;;;;;;4936482;29;20035;-89
2022/10/04 14:13:31;;;;;;;5.35;3.53;;;16.90;99.90;;;;;;4926021;29;20044;-89
2022/10/04 14:16:36;;;;;;;4.88;2.63;;;17.10;99.90;;;;;;4935303;29;20108;-89
2022/10/04 14:19:26;;;;;;;3.97;3.20;;;17.10;99.90;;;;;;4929859;29;20079;-88
2022/10/04 14:22:07;;;;;;;6.72;2.78;;;17.10;99.90;;;;;;4921634;29;20122;-89
2022/10/04 14:24:36;;;;;;;6.05;2.85;;;17.00;99.90;;;;;;4924471;29;20031;-88
2022/10/04 14:27:25;;;;;;;4.68;2.45;;;17.10;99.90;;;;;;4930922;29;20398;-89
2022/10/04 14:30:05;;;;;;;19.55;3.22;;;17.20;99.90;;;;;;4908206;29;20043;-89
2022/10/04 14:33:22;;;;;;;3.97;3.03;;;17.20;99.90;;;;;;4932482;29;20047;-89
2022/10/04 14:35:59;;;;;;;6.47;2.65;;;17.30;99.90;;;;;;4910406;29;20474;-89
2022/10/04 14:38:35;;;;;;;9.18;2.90;;;17.30;99.90;;;;;;4919685;29;20047;-89
2022/10/04 14:41:20;;;;;;;4.88;2.80;;;17.40;99.90;;;;;;4931584;29;20036;-89